Time;durP1;ratioP1;P1;durP2;ratioP2;P2;SDS_P1;SDS_P2;PMS_P1;PMS_P2;Temp;Humidity;BMP_temperature;BMP_pressure;BME280_temperature;BME280_humidity;BME280_pressure;Samples;Min_cycle;Max_cycle;Signal;HPM_P1;HPM_P2
2022/01/19 00:01:09;;;;;;;47.23;18.60;;;;;;;1.28;78.47;102039.09;2173171;81;27614;-58
2022/01/19 00:04:11;;;;;;;43.00;16.55;;;;;;;1.32;78.44;102025.50;2172611;81;29991;-60
2022/01/19 00:07:12;;;;;;;39.65;14.83;;;;;;;1.35;78.45;102014.55;2151784;81;31093;-61
2022/01/19 00:10:19;;;;;;;37.00;14.13;;;;;;;1.38;78.44;102011.09;2173028;81;34096;-64
2022/01/19 00:13:19;;;;;;;28.65;12.93;;;;;;;1.44;78.51;102010.30;2174750;80;30751;-60
2022/01/19 00:16:21;;;;;;;33.53;14.43;;;;;;;1.47;78.49;101998.47;2172710;81;27676;-60
2022/01/19 00:19:23;;;;;;;33.28;12.95;;;;;;;1.50;78.45;101996.75;2183685;80;29288;-59
2022/01/19 00:22:28;;;;;;;27.02;13.58;;;;;;;1.54;78.44;101996.81;2210661;80;31984;-59
2022/01/19 00:25:34;;;;;;;29.57;13.90;;;;;;;1.59;78.45;101990.73;2210684;80;33792;-59
2022/01/19 00:28:39;;;;;;;33.25;13.85;;;;;;;1.63;78.35;101990.33;2211463;80;29468;-59
2022/01/19 00:31:42;;;;;;;28.23;13.65;;;;;;;1.67;78.38;101991.71;2211305;80;33242;-59
2022/01/19 00:34:44;;;;;;;32.23;13.55;;;;;;;1.72;78.38;101985.61;2211032;80;29030;-60
2022/01/19 00:37:46;;;;;;;29.30;12.13;;;;;;;1.77;78.38;101978.20;2211394;80;31000;-60
2022/01/19 00:40:49;;;;;;;33.15;13.58;;;;;;;1.80;78.34;101972.09;2211055;80;32946;-60
2022/01/19 00:43:51;;;;;;;24.55;12.13;;;;;;;1.85;78.35;101971.70;2207314;79;30621;-60
2022/01/19 00:46:52;;;;;;;34.40;13.32;;;;;;;1.89;78.30;101976.17;2228057;79;27703;-60
2022/01/19 00:49:54;;;;;;;25.30;12.85;;;;;;;1.92;78.22;101981.50;2226869;79;30113;-60
2022/01/19 00:52:57;;;;;;;25.60;12.40;;;;;;;1.95;78.21;101984.19;2226655;79;30804;-60
2022/01/19 00:55:58;;;;;;;27.85;11.88;;;;;;;1.97;78.23;101986.84;2227677;79;33580;-60
2022/01/19 00:59:00;;;;;;;29.92;12.33;;;;;;;2.01;78.26;101980.73;2227874;79;30414;-59
2022/01/19 01:02:04;;;;;;;31.57;12.55;;;;;;;2.03;78.18;101986.94;2228155;79;27647;-60
2022/01/19 01:05:06;;;;;;;25.15;12.37;;;;;;;;;;2227757;79;29471;-60
2022/01/19 01:08:08;;;;;;;34.15;13.62;;;;;;;;;;2227593;79;30846;-60
2022/01/19 01:11:10;;;;;;;27.77;12.80;;;;;;;2.10;78.20;101965.43;2227281;79;33396;-60
2022/01/19 01:20:39;;;;;;;26.55;12.63;;;;;;;2.20;78.19;101955.41;2188671;81;29028;-60
2022/01/19 01:23:41;;;;;;;23.95;13.62;;;;;;;2.23;78.24;101944.00;2189087;81;34761;-60
2022/01/19 01:26:43;;;;;;;33.53;14.05;;;;;;;2.25;78.23;101935.63;2188563;81;33650;-60
2022/01/19 01:29:45;;;;;;;32.98;13.98;;;;;;;2.26;78.19;101927.72;2188653;81;30534;-60
2022/01/19 01:32:47;;;;;;;28.25;14.45;;;;;;;2.28;78.15;101926.41;2189029;81;27618;-61
2022/01/19 01:35:49;;;;;;;25.80;14.55;;;;;;;2.30;78.24;101923.80;2188904;81;28834;-60
2022/01/19 01:38:50;;;;;;;27.90;15.45;;;;;;;2.32;78.20;101911.03;2188924;81;30812;-60
2022/01/19 01:41:52;;;;;;;25.82;13.53;;;;;;;2.35;78.19;101914.13;2191035;79;32956;-60
2022/01/19 01:44:57;;;;;;;23.92;13.75;;;;;;;2.36;78.17;101914.59;2182073;81;29941;-60
2022/01/19 01:48:06;;;;;;;24.23;13.60;;;;;;;2.38;78.20;101888.63;2179099;81;27668;-60
2022/01/19 01:54:22;;;;;;;23.92;12.23;;;;;;;2.44;78.13;101874.58;2178869;81;32216;-64
2022/01/19 01:57:24;;;;;;;23.32;12.58;;;;;;;2.46;78.08;101864.90;2178920;81;34371;-61
2022/01/19 02:00:26;;;;;;;22.13;12.80;;;;;;;2.46;78.07;101844.16;2203035;80;30541;-61
2022/01/19 02:03:29;;;;;;;31.42;15.38;;;;;;;2.46;78.11;101849.03;2216808;80;27598;-61
2022/01/19 02:06:51;;;;;;;33.10;18.05;;;;;;;2.49;78.12;101854.32;2217290;80;28925;-61
2022/01/19 02:09:40;;;;;;;39.55;20.77;;;;;;;2.51;78.10;101863.61;2217442;80;31742;-60
2022/01/19 02:16:19;;;;;;;38.35;20.35;;;;;;;2.55;78.07;101874.23;2179122;81;30646;-60
2022/01/19 02:22:36;;;;;;;30.12;17.65;;;;;;;2.57;77.95;101851.73;2178914;81;28940;-60
2022/01/19 02:25:41;;;;;;;30.88;16.23;;;;;;;2.59;78.01;101843.38;2178423;81;32144;-60
2022/01/19 02:41:52;;;;;;;27.95;15.83;;;;;;;2.63;77.81;101816.09;2118092;83;31724;-60
2022/01/19 02:51:16;;;;;;;29.20;14.93;;;;;;;2.66;77.88;101789.66;2121380;83;28364;-61
2022/01/19 02:54:22;;;;;;;32.40;14.85;;;;;;;2.67;77.73;101790.11;2121852;83;28722;-60
2022/01/19 02:57:26;;;;;;;23.55;14.10;;;;;;;2.68;77.70;101784.36;2120899;83;30837;-61
2022/01/19 03:10:21;;;;;;;26.55;14.98;;;;;;;2.70;77.58;101759.70;2122361;83;28698;-60
2022/01/19 03:13:23;;;;;;;26.68;14.60;;;;;;;2.71;77.62;101751.31;2174553;79;31020;-61
2022/01/19 03:16:26;;;;;;;27.55;14.58;;;;;;;2.71;77.45;101751.31;2188947;81;35070;-59
2022/01/19 03:19:30;;;;;;;28.12;14.13;;;;;;;2.70;77.38;101746.48;2188944;81;30184;-60
2022/01/19 03:22:42;;;;;;;32.67;14.03;;;;;;;2.69;77.39;101735.44;2189569;81;27620;-60
2022/01/19 03:25:38;;;;;;;30.65;14.53;;;;;;;2.71;77.35;101726.17;2187492;81;28668;-61
2022/01/19 03:28:39;;;;;;;25.77;14.10;;;;;;;2.71;77.27;101726.17;2189304;81;31055;-60
2022/01/19 03:31:41;;;;;;;25.25;13.85;;;;;;;2.74;77.31;101714.30;2191374;79;33772;-61
2022/01/19 03:34:44;;;;;;;29.67;13.93;;;;;;;2.74;77.22;101702.38;2188862;81;30213;-60
2022/01/19 03:37:45;;;;;;;24.63;13.18;;;;;;;2.75;77.11;101700.19;2188963;81;28377;-60
2022/01/19 03:40:48;;;;;;;26.68;14.03;;;;;;;2.74;77.03;101691.80;2218176;79;29566;-60
2022/01/19 03:43:55;;;;;;;27.02;13.72;;;;;;;2.75;77.09;101690.92;2227854;79;31888;-61
2022/01/19 03:47:02;;;;;;;27.35;13.50;;;;;;;2.75;77.02;101677.70;2227660;79;33992;-60
2022/01/19 03:50:05;;;;;;;26.25;14.85;;;;;;;2.76;77.01;101682.11;2227808;79;29369;-60
2022/01/19 03:53:07;;;;;;;30.52;13.00;;;;;;;2.77;76.99;101682.56;2228047;79;27710;-60
2022/01/19 03:56:10;;;;;;;24.00;13.38;;;;;;;2.76;76.97;101679.47;2227795;79;29232;-59
2022/01/19 03:59:12;;;;;;;21.80;11.53;;;;;;;2.78;76.88;101675.07;2228015;79;31678;-60
2022/01/19 04:02:15;;;;;;;16.90;10.10;;;;;;;2.79;76.85;101674.20;2205104;79;33659;-59
2022/01/19 04:05:36;;;;;;;21.62;11.53;;;;;;;2.78;76.69;101664.48;2189097;81;29320;-59
2022/01/19 04:08:27;;;;;;;19.35;10.45;;;;;;;2.79;76.73;101659.64;2186716;81;27700;-59
2022/01/19 04:11:28;;;;;;;21.52;10.43;;;;;;;2.76;76.77;101656.07;2189202;79;28707;-60
2022/01/19 04:14:30;;;;;;;20.88;9.93;;;;;;;2.78;76.75;101660.94;2189083;81;31403;-60
2022/01/19 04:17:32;;;;;;;24.32;10.25;;;;;;;2.80;76.78;101660.51;2189069;81;33551;-59
2022/01/19 04:20:41;;;;;;;14.83;9.28;;;;;;;2.82;76.76;101656.11;2189115;81;30165;-59
2022/01/19 04:23:38;;;;;;;26.85;10.32;;;;;;;2.83;76.77;101653.45;2188252;81;27686;-59
2022/01/19 04:26:40;;;;;;;25.12;9.18;;;;;;;2.84;76.84;101656.55;2188660;81;29980;-59
2022/01/19 04:29:58;;;;;;;24.87;9.90;;;;;;;2.86;76.81;101649.51;2156449;82;32252;-59
2022/01/19 04:36:21;;;;;;;21.65;9.95;;;;;;;2.89;76.70;101646.87;2086377;84;27695;-59
2022/01/19 04:44:02;;;;;;;19.07;10.10;;;;;;;2.88;76.66;101647.75;2185607;81;28519;-59
2022/01/19 04:46:01;;;;;;;18.55;9.58;;;;;;;2.91;76.59;101640.71;2123181;83;31202;-59
2022/01/19 05:08:22;;;;;;;24.87;12.90;;;;;;;2.90;76.29;101608.05;2074645;85;29356;-60
2022/01/19 05:14:38;;;;;;;25.75;12.90;;;;;;;2.92;76.28;101608.07;2074388;85;29930;-58
2022/01/19 05:17:40;;;;;;;21.25;13.45;;;;;;;2.92;76.30;101597.03;2074612;85;30776;-58
2022/01/19 05:20:42;;;;;;;27.95;15.03;;;;;;;2.92;76.14;101595.70;2074589;85;33117;-59
2022/01/19 05:23:44;;;;;;;24.67;13.30;;;;;;;2.91;76.06;101592.61;2131266;83;29156;-58
2022/01/19 05:26:46;;;;;;;23.12;13.25;;;;;;;2.89;75.87;101589.10;2161443;81;27714;-58
2022/01/19 05:29:50;;;;;;;20.43;12.28;;;;;;;2.88;75.97;101582.91;2160342;81;27854;-58
2022/01/19 05:32:51;;;;;;;24.10;12.65;;;;;;;2.87;76.00;101586.44;2141291;83;31233;-58
2022/01/19 05:35:53;;;;;;;22.90;12.28;;;;;;;2.87;75.84;101578.95;2115624;84;33408;-59
2022/01/19 05:38:55;;;;;;;21.45;11.70;;;;;;;2.84;75.90;101578.48;2115958;84;30279;-59
2022/01/19 05:41:57;;;;;;;27.37;13.28;;;;;;;2.84;75.81;101572.31;2115927;84;27706;-59
2022/01/19 05:44:58;;;;;;;27.02;12.90;;;;;;;2.82;75.73;101573.61;2117780;83;29683;-59
2022/01/19 05:48:01;;;;;;;27.55;14.50;;;;;;;2.80;75.73;101564.81;2123660;83;31136;-59
2022/01/19 05:51:03;;;;;;;23.52;13.70;;;;;;;2.81;75.77;101569.66;2123800;83;33775;-59
2022/01/19 05:54:05;;;;;;;31.23;15.23;;;;;;;2.81;75.76;101559.06;2125214;82;29681;-59
2022/01/19 05:57:10;;;;;;;26.12;14.55;;;;;;;2.80;75.69;101546.30;2221936;79;27423;-59
2022/01/19 06:00:13;;;;;;;31.40;16.12;;;;;;;2.80;75.68;101545.39;2218897;79;29444;-60
2022/01/19 06:03:16;;;;;;;29.48;14.18;;;;;;;2.79;75.69;101544.52;2181518;81;32019;-60
2022/01/19 06:06:19;;;;;;;27.35;14.95;;;;;;;2.78;75.59;101536.56;2181799;81;32742;-59
2022/01/19 06:09:48;;;;;;;24.07;14.68;;;;;;;2.78;75.72;101541.43;2181863;81;30086;-59
2022/01/19 06:12:39;;;;;;;23.00;14.47;;;;;;;2.79;75.82;101529.97;2179466;81;27686;-61
2022/01/19 06:15:42;;;;;;;23.62;14.35;;;;;;;2.81;75.76;101529.53;2181396;81;29942;-60
2022/01/19 06:18:44;;;;;;;25.23;14.38;;;;;;;2.82;75.74;101521.14;2181296;81;31002;-59
2022/01/19 06:21:46;;;;;;;23.67;13.28;;;;;;;2.83;75.75;101517.16;2180557;81;33821;-60
2022/01/19 06:24:49;;;;;;;24.30;13.30;;;;;;;2.83;75.63;101515.84;2186385;79;30667;-59
2022/01/19 06:27:51;;;;;;;25.57;13.75;;;;;;;2.83;75.67;101514.97;2206151;79;27659;-59
2022/01/19 06:30:52;;;;;;;24.50;14.05;;;;;;;2.83;75.63;101507.90;2227642;79;29634;-60
2022/01/19 06:33:54;;;;;;;27.55;15.60;;;;;;;2.85;75.70;101508.79;2228068;79;31060;-59
2022/01/19 06:36:56;;;;;;;29.00;16.70;;;;;;;2.85;75.58;101509.25;2228129;79;33864;-59
2022/01/19 06:39:58;;;;;;;37.25;17.92;;;;;;;2.84;75.52;101501.73;2228192;79;29333;-59
2022/01/19 06:43:00;;;;;;;27.40;17.23;;;;;;;2.84;75.52;101495.56;2228039;79;27648;-60
2022/01/19 06:46:01;;;;;;;30.20;17.00;;;;;;;2.83;75.47;101494.67;2227339;79;29368;-60
2022/01/19 06:49:03;;;;;;;29.98;16.55;;;;;;;2.83;75.47;101485.86;2227316;79;32269;-60
2022/01/19 06:52:25;;;;;;;26.65;15.72;;;;;;;2.83;75.52;101485.41;2226831;79;32982;-62
2022/01/19 06:55:26;;;;;;;31.20;16.97;;;;;;;2.83;75.47;101480.11;2212353;79;29452;-60
2022/01/19 06:58:31;;;;;;;33.08;17.60;;;;;;;2.84;75.51;101488.50;2222807;80;27799;-60
2022/01/19 07:01:34;;;;;;;34.00;18.62;;;;;;;2.87;75.50;101492.93;2222578;80;28704;-60
2022/01/19 07:04:36;;;;;;;30.55;16.70;;;;;;;2.89;75.56;101491.17;2222392;80;31088;-59
2022/01/19 07:07:38;;;;;;;24.60;15.75;;;;;;;2.89;75.48;101481.45;2222373;80;33897;-59
2022/01/19 07:10:41;;;;;;;29.60;17.35;;;;;;;2.91;75.32;101473.95;2222206;79;30000;-59
2022/01/19 07:13:43;;;;;;;29.27;16.60;;;;;;;2.91;75.35;101466.89;2223210;80;27987;-59
2022/01/19 07:16:46;;;;;;;30.48;17.02;;;;;;;2.93;75.31;101473.52;2222425;80;29230;-59
2022/01/19 07:19:48;;;;;;;32.30;17.85;;;;;;;2.94;75.17;101470.00;2222355;80;32023;-59
2022/01/19 07:22:51;;;;;;;29.98;16.67;;;;;;;2.95;75.25;101464.70;2222046;80;33793;-59
2022/01/19 07:25:53;;;;;;;28.75;16.02;;;;;;;2.99;75.22;101461.59;2271042;77;29355;-59
2022/01/19 07:28:55;;;;;;;32.23;17.73;;;;;;;3.00;75.00;101456.75;2292680;77;27623;-59
2022/01/19 07:31:58;;;;;;;26.00;15.65;;;;;;;3.01;74.97;101458.09;2287229;77;28575;-59
2022/01/19 07:34:59;;;;;;;29.18;15.95;;;;;;;3.02;74.92;101453.24;2287065;77;31865;-60
2022/01/19 07:38:02;;;;;;;30.55;16.95;;;;;;;3.06;74.68;101447.50;2286667;77;34303;-60
2022/01/19 07:41:04;;;;;;;31.20;16.55;;;;;;;3.08;74.71;101444.84;2286921;77;30314;-59
2022/01/19 07:44:06;;;;;;;33.02;19.00;;;;;;;3.12;74.76;101445.28;2285562;77;27697;-59
2022/01/19 07:47:08;;;;;;;29.25;17.55;;;;;;;3.14;74.62;101437.80;2274164;77;29548;-60
2022/01/19 07:50:10;;;;;;;29.35;16.45;;;;;;;3.18;74.60;101434.25;2222290;80;31387;-59
2022/01/19 07:53:14;;;;;;;32.88;17.85;;;;;;;3.24;74.40;101425.41;2221445;80;33110;-60
2022/01/19 07:56:17;;;;;;;29.15;16.73;;;;;;;3.30;74.43;101427.20;2227609;79;27686;-60
2022/01/19 07:59:20;;;;;;;27.02;16.95;;;;;;;3.39;74.57;101414.38;2252355;78;27706;-59
2022/01/19 08:02:32;;;;;;;31.33;18.60;;;;;;;3.45;74.30;101407.73;2222113;80;29348;-60
2022/01/19 08:05:28;;;;;;;31.07;18.87;;;;;;;3.54;74.26;101412.13;2229337;79;31373;-61
2022/01/19 08:08:30;;;;;;;40.83;23.00;;;;;;;3.63;74.30;101410.33;2230239;79;34168;-61
2022/01/19 08:11:33;;;;;;;44.65;26.42;;;;;;;3.72;74.25;101409.42;2264368;77;30047;-61
2022/01/19 08:14:37;;;;;;;50.70;30.45;;;;;;;3.84;74.23;101414.23;2261499;78;27711;-60
2022/01/19 08:17:40;;;;;;;42.58;24.23;;;;;;;3.91;74.17;101406.25;2262732;78;33069;-60
2022/01/19 08:20:43;;;;;;;49.60;24.65;;;;;;;4.02;74.18;101402.69;2262467;78;31394;-60
2022/01/19 08:23:45;;;;;;;50.67;19.87;;;;;;;4.09;73.96;101402.66;2263849;77;32996;-61
2022/01/19 08:26:47;;;;;;;28.50;16.23;;;;;;;4.16;73.65;101397.30;2222567;80;30144;-61
2022/01/19 08:29:49;;;;;;;24.98;16.67;;;;;;;4.21;73.50;101391.53;2222196;80;27651;-61
2022/01/19 08:32:52;;;;;;;35.03;17.20;;;;;;;4.21;73.08;101388.88;2222356;80;28844;-60
2022/01/19 08:35:53;;;;;;;29.80;17.23;;;;;;;4.18;73.07;101388.47;2221971;80;31234;-61
2022/01/19 08:38:56;;;;;;;32.28;17.07;;;;;;;4.20;73.00;101385.36;2222883;80;33019;-61
2022/01/19 08:41:57;;;;;;;27.48;16.25;;;;;;;4.22;72.98;101381.36;2222317;80;30094;-60
2022/01/19 08:45:05;;;;;;;31.60;16.93;;;;;;;4.30;73.26;101385.30;2221273;80;27735;-60
2022/01/19 08:48:05;;;;;;;32.03;17.10;;;;;;;4.35;72.95;101366.27;2211222;79;28862;-60
2022/01/19 08:51:08;;;;;;;44.85;19.67;;;;;;;4.41;72.98;101364.45;2262570;78;31894;-60
2022/01/19 08:54:11;;;;;;;53.40;23.10;;;;;;;4.48;72.82;101353.34;2263351;77;33589;-61
2022/01/19 08:57:13;;;;;;;73.62;24.18;;;;;;;4.59;72.76;101346.63;2262780;77;29381;-60
2022/01/19 09:00:17;;;;;;;41.70;18.67;;;;;;;4.75;72.92;101346.04;2239428;78;27698;-60
2022/01/19 09:03:19;;;;;;;47.93;20.10;;;;;;;4.86;72.68;101344.63;2221821;80;28728;-60
2022/01/19 09:06:21;;;;;;;73.72;24.37;;;;;;;4.95;72.43;101338.34;2221451;80;32366;-62
2022/01/19 09:09:23;;;;;;;61.10;23.57;;;;;;;5.07;72.51;101344.00;2222298;80;32922;-61
2022/01/19 09:12:25;;;;;;;36.53;20.17;;;;;;;5.14;72.18;101342.59;2221281;80;30633;-60
2022/01/19 09:15:28;;;;;;;33.92;18.67;;;;;;;5.25;72.13;101340.25;2222201;80;27696;-60
2022/01/19 09:18:29;;;;;;;34.65;17.52;;;;;;;5.32;71.78;101344.16;2221894;80;29931;-60
2022/01/19 09:21:31;;;;;;;35.23;18.20;;;;;;;5.42;71.91;101344.94;2222350;80;32153;-61
2022/01/19 09:24:35;;;;;;;33.13;19.07;;;;;;;5.52;71.67;101336.41;2238088;77;34210;-62
2022/01/19 09:27:39;;;;;;;29.18;16.05;;;;;;;5.61;71.71;101328.34;2247771;78;30017;-60
2022/01/19 09:30:41;;;;;;;33.67;17.53;;;;;;;5.70;70.89;101319.80;2192263;81;27673;-61
2022/01/19 09:33:52;;;;;;;34.70;17.55;;;;;;;5.72;71.20;101310.89;2221538;80;29848;-59
2022/01/19 09:36:48;;;;;;;38.42;22.00;;;;;;;5.83;71.26;101305.44;2219245;79;31152;-59
2022/01/19 09:39:50;;;;;;;39.33;21.95;;;;;;;5.91;70.79;101300.02;2231320;79;33794;-60
2022/01/19 09:42:52;;;;;;;33.13;19.50;;;;;;;6.00;70.86;101297.27;2231196;79;30545;-60
2022/01/19 09:45:59;;;;;;;37.63;21.80;;;;;;;6.07;70.56;101287.42;2231755;79;27573;-60
2022/01/19 09:49:02;;;;;;;34.38;17.15;;;;;;;6.02;70.40;101282.17;2230960;79;29299;-61
2022/01/19 09:52:05;;;;;;;62.13;34.33;;;;;;;6.02;70.10;101282.17;2230583;79;31016;-61
2022/01/19 09:55:10;;;;;;;49.15;34.60;;;;;;;5.98;69.92;101283.52;2227478;79;33104;-61
2022/01/19 09:58:12;;;;;;;41.98;21.73;;;;;;;5.91;69.69;101279.64;2224648;79;30054;-60
2022/01/19 10:01:23;;;;;;;53.00;33.02;;;;;;;5.84;69.52;101276.63;2225340;79;27608;-61
2022/01/19 10:04:31;;;;;;;30.27;18.42;;;;;;;5.75;69.60;101272.77;2225753;80;28690;-61
2022/01/19 10:07:33;;;;;;;54.27;34.03;;;;;;;5.69;69.53;101263.11;2225688;80;31015;-60
2022/01/19 10:10:35;;;;;;;49.67;32.15;;;;;;;5.64;69.83;101252.98;2225732;79;34106;-61
2022/01/19 10:17:08;;;;;;;34.43;21.02;;;;;;;5.58;69.61;101250.39;2193314;80;27614;-60
2022/01/19 10:20:22;;;;;;;31.80;17.70;;;;;;;5.53;69.52;101248.27;2186138;80;29129;-61
2022/01/19 10:23:44;;;;;;;35.05;19.55;;;;;;;5.49;69.57;101224.82;2208809;79;31049;-60
2022/01/19 10:26:46;;;;;;;29.40;17.85;;;;;;;5.44;69.27;101223.56;2229560;79;33053;-60
2022/01/19 10:29:51;;;;;;;35.65;20.43;;;;;;;5.38;69.24;101216.13;2229133;79;29761;-59
2022/01/19 10:33:00;;;;;;;39.03;22.00;;;;;;;5.32;69.32;101215.30;2230145;79;27574;-60
2022/01/19 10:36:04;;;;;;;31.52;18.02;;;;;;;5.30;69.51;101198.95;2203142;79;28716;-60
2022/01/19 10:39:05;;;;;;;33.70;19.27;;;;;;;5.30;69.40;101198.95;2229730;79;31280;-60
2022/01/19 10:42:17;;;;;;;32.60;20.52;;;;;;;5.30;69.42;101189.19;2229847;79;34091;-60
2022/01/19 10:45:19;;;;;;;35.28;23.67;;;;;;;5.30;69.28;101189.19;2229783;79;29365;-59
2022/01/19 10:48:35;;;;;;;29.55;18.15;;;;;;;5.30;69.13;101182.55;2228697;79;28375;-59
2022/01/19 10:51:46;;;;;;;43.60;25.43;;;;;;;5.31;69.20;101170.16;2229475;78;28586;-60
2022/01/19 10:54:50;;;;;;;39.63;20.17;;;;;;;5.29;69.36;101163.55;2247372;77;31667;-61
2022/01/19 10:57:53;;;;;;;38.55;21.68;;;;;;;5.32;69.14;101156.84;2262252;78;34270;-60
2022/01/19 11:00:55;;;;;;;45.90;28.42;;;;;;;5.32;68.88;101149.34;2261835;78;28778;-60
2022/01/19 11:04:19;;;;;;;26.82;18.50;;;;;;;5.31;69.08;101136.48;2262554;78;27690;-61
2022/01/19 11:07:22;;;;;;;44.67;27.07;;;;;;;5.33;69.17;101125.86;2262611;78;28800;-60
2022/01/19 11:10:25;;;;;;;27.22;16.32;;;;;;;5.35;69.12;101115.19;2262871;78;31466;-61
2022/01/19 11:13:32;;;;;;;19.17;13.48;;;;;;;5.36;68.90;101110.30;2262785;78;33016;-60
2022/01/19 11:16:33;;;;;;;17.87;12.88;;;;;;;5.31;68.74;101097.96;2262419;78;29326;-60
2022/01/19 11:19:40;;;;;;;26.85;16.80;;;;;;;5.28;68.56;101091.83;2262847;78;27726;-60
2022/01/19 11:23:19;;;;;;;14.85;9.78;;;;;;;5.26;68.77;101076.36;2262783;78;29528;-61
2022/01/19 11:26:23;;;;;;;15.48;8.58;;;;;;;5.25;68.47;101071.50;2273202;77;31030;-60
2022/01/19 11:29:30;;;;;;;25.68;16.32;;;;;;;5.22;68.14;101075.97;2260431;77;29396;-60
2022/01/19 11:32:32;;;;;;;21.35;13.03;;;;;;;5.17;68.05;101061.43;2244308;77;29309;-60
2022/01/19 11:35:36;;;;;;;18.23;11.95;;;;;;;5.13;68.09;101050.45;2221745;80;27652;-60
2022/01/19 11:38:43;;;;;;;19.62;12.90;;;;;;;5.09;68.26;101050.92;2222320;80;28689;-60
2022/01/19 11:42:00;;;;;;;28.17;15.10;;;;;;;5.05;68.28;101039.91;2217700;80;31260;-61
2022/01/19 11:45:07;;;;;;;22.50;13.60;;;;;;;5.02;68.41;101038.66;2247796;77;34225;-60
2022/01/19 11:48:29;;;;;;;20.88;11.40;;;;;;;5.01;68.30;101032.45;2282355;77;29412;-61
2022/01/19 11:51:38;;;;;;;22.37;15.40;;;;;;;5.01;68.30;101036.89;2287091;77;27651;-61
2022/01/19 11:54:40;;;;;;;21.02;13.30;;;;;;;5.00;68.14;101029.36;2277779;77;28622;-62
2022/01/19 11:57:44;;;;;;;17.25;11.22;;;;;;;4.98;68.34;101025.84;2240583;79;32293;-61
2022/01/19 12:00:49;;;;;;;18.85;10.43;;;;;;;4.99;68.22;101014.80;2240883;79;33035;-59
2022/01/19 12:03:51;;;;;;;23.65;16.50;;;;;;;4.95;67.95;100995.38;2241161;79;30131;-60
2022/01/19 12:06:53;;;;;;;28.42;18.07;;;;;;;4.93;68.09;100994.52;2240756;79;27710;-60
2022/01/19 12:09:56;;;;;;;19.82;13.55;;;;;;;4.93;68.22;100990.98;2240559;79;29872;-60
2022/01/19 12:17:08;;;;;;;20.70;12.80;;;;;;;4.87;67.95;100968.05;2240653;79;33321;-61
2022/01/19 12:20:08;;;;;;;22.15;12.85;;;;;;;4.84;67.93;100950.84;2212847;80;29177;-60
2022/01/19 12:23:31;;;;;;;19.40;12.13;;;;;;;4.80;67.87;100944.71;2240976;79;27556;-60
2022/01/19 12:27:00;;;;;;;19.67;12.40;;;;;;;4.77;67.76;100932.80;2212715;80;28691;-62
2022/01/19 12:30:19;;;;;;;22.10;14.33;;;;;;;4.74;67.92;100927.54;2240986;79;30551;-62
2022/01/19 12:33:21;;;;;;;18.10;11.85;;;;;;;4.75;68.04;100912.51;2212986;80;33320;-62
2022/01/19 12:36:51;;;;;;;22.85;13.48;;;;;;;4.71;67.71;100911.22;2240494;79;30602;-61
2022/01/19 12:39:55;;;;;;;18.85;12.60;;;;;;;4.69;68.06;100905.52;2241135;79;27742;-60
2022/01/19 12:43:32;;;;;;;20.27;12.45;;;;;;;4.69;68.18;100901.54;2240532;79;29741;-61
2022/01/19 12:46:38;;;;;;;51.80;29.87;;;;;;;4.69;68.16;100904.20;2241109;77;32051;-61
2022/01/19 12:49:40;;;;;;;33.20;20.37;;;;;;;4.70;68.15;100901.97;2238194;79;34263;-61
2022/01/19 12:52:46;;;;;;;136.18;72.78;;;;;;;4.69;68.21;100893.11;2237329;79;30156;-61
2022/01/19 12:55:56;;;;;;;38.60;22.07;;;;;;;4.71;68.30;100887.80;2221085;79;27941;-61
2022/01/19 12:59:02;;;;;;;38.73;24.37;;;;;;;4.71;68.10;100891.31;2225868;80;29397;-61
2022/01/19 13:02:04;;;;;;;33.78;21.15;;;;;;;4.74;68.33;100884.20;2224949;79;31428;-61
2022/01/19 13:05:10;;;;;;;26.42;16.17;;;;;;;4.78;68.41;100868.67;2191920;80;33762;-62
2022/01/19 13:08:18;;;;;;;29.00;17.60;;;;;;;4.79;68.36;100864.65;2205259;80;30122;-62
2022/01/19 13:11:26;;;;;;;;;;;;;;;4.82;68.34;100850.44;2164877;80;27667;-59
2022/01/19 13:14:29;;;;;;;21.65;13.98;;;;;;;4.83;68.40;100842.47;2205273;80;30152;-60
2022/01/19 13:17:46;;;;;;;30.52;17.60;;;;;;;4.82;68.18;100831.86;2218953;80;32535;-61
2022/01/19 13:20:54;;;;;;;24.27;15.88;;;;;;;4.81;68.23;100831.42;2224110;79;33201;-61
2022/01/19 13:24:11;;;;;;;25.65;15.25;;;;;;;4.80;68.35;100824.40;2224696;79;29368;-61
2022/01/19 13:27:11;;;;;;;25.62;15.78;;;;;;;4.79;68.25;100808.91;2225484;79;27628;-62
2022/01/19 13:30:14;;;;;;;27.07;17.70;;;;;;;4.77;68.37;100801.42;2225435;79;28651;-61
2022/01/19 13:33:17;;;;;;;44.08;27.42;;;;;;;4.77;68.51;100790.80;2225053;79;31013;-61
2022/01/19 13:36:32;;;;;;;71.92;48.68;;;;;;;4.78;68.55;100773.11;2224637;79;33819;-60
2022/01/19 13:39:34;;;;;;;74.42;50.25;;;;;;;4.77;68.53;100772.69;2244933;79;29381;-61
2022/01/19 13:42:45;;;;;;;39.55;25.50;;;;;;;4.77;68.58;100767.38;2225053;80;27692;-61
2022/01/19 13:45:49;;;;;;;43.40;25.40;;;;;;;4.76;68.62;100766.95;2247581;79;29829;-61
2022/01/19 13:49:03;;;;;;;34.73;21.52;;;;;;;4.73;68.62;100759.04;2216990;78;32371;-62
2022/01/19 13:52:06;;;;;;;28.42;18.98;;;;;;;4.72;68.73;100752.84;2197703;80;32904;-62
2022/01/19 13:55:21;;;;;;;32.85;18.80;;;;;;;4.70;68.80;100744.92;2239433;79;30018;-61
2022/01/19 13:58:33;;;;;;;35.15;20.00;;;;;;;4.70;68.77;100741.41;2198478;80;27722;-63
2022/01/19 14:01:57;;;;;;;28.65;16.65;;;;;;;4.68;68.85;100733.92;2177970;81;28664;-64
2022/01/19 14:04:53;;;;;;;29.77;17.87;;;;;;;4.72;68.95;100732.94;2224704;79;31018;-63
2022/01/19 14:07:55;;;;;;;26.23;16.67;;;;;;;4.77;68.83;100723.12;2178764;81;34010;-66
2022/01/19 14:10:56;;;;;;;28.23;18.35;;;;;;;4.81;68.84;100714.63;2198042;81;30387;-63
2022/01/19 14:14:03;;;;;;;27.65;16.67;;;;;;;4.81;68.72;100698.27;2178519;81;27649;-65
2022/01/19 14:17:15;;;;;;;30.27;18.35;;;;;;;4.79;68.43;100701.87;2209315;80;29640;-64
2022/01/19 14:20:22;;;;;;;30.23;20.10;;;;;;;4.74;68.46;100701.08;2238727;79;31685;-63
2022/01/19 14:23:23;;;;;;;27.07;16.65;;;;;;;4.68;68.47;100684.35;2212437;80;33373;-61
2022/01/19 14:26:26;;;;;;;29.52;16.30;;;;;;;4.63;68.49;100676.06;2241042;79;29443;-62
2022/01/19 14:29:28;;;;;;;32.00;17.35;;;;;;;4.57;68.40;100671.75;2212743;80;27713;-67
2022/01/19 14:32:58;;;;;;;27.95;16.85;;;;;;;4.50;68.46;100666.12;2241189;79;29388;-63
2022/01/19 14:36:01;;;;;;;26.87;16.50;;;;;;;4.44;68.36;100666.26;2167873;80;31175;-66
2022/01/19 14:39:03;;;;;;;28.57;17.87;;;;;;;4.32;68.40;100665.55;2197371;81;33958;-67
2022/01/19 14:42:10;;;;;;;28.57;18.42;;;;;;;4.21;68.44;100656.48;2178465;81;29327;-69
2022/01/19 14:45:27;;;;;;;26.80;15.55;;;;;;;4.13;68.53;100646.45;2204775;79;27698;-62
2022/01/19 14:48:36;;;;;;;30.72;19.48;;;;;;;4.06;68.46;100641.70;2173686;80;28603;-66
2022/01/19 14:51:40;;;;;;;31.30;20.68;;;;;;;3.94;68.53;100640.59;2197202;81;30915;-64
2022/01/19 14:54:42;;;;;;;32.17;17.48;;;;;;;3.84;68.66;100634.58;2198590;79;36800;-63
2022/01/19 14:57:44;;;;;;;29.10;18.87;;;;;;;3.74;68.68;100631.62;2216960;79;30346;-64
2022/01/19 15:00:45;;;;;;;32.60;18.67;;;;;;;3.65;68.81;100626.92;2213814;79;27692;-64
2022/01/19 15:03:47;;;;;;;40.95;23.87;;;;;;;3.54;68.87;100622.25;2236843;79;29479;-67
2022/01/19 15:06:49;;;;;;;32.00;17.90;;;;;;;3.45;69.08;100615.75;2232120;79;32142;-63
2022/01/19 15:09:51;;;;;;;34.50;22.10;;;;;;;3.35;69.09;100611.03;2200801;79;32967;-65
2022/01/19 15:12:53;;;;;;;41.33;22.80;;;;;;;3.24;69.17;100607.67;2237624;79;29306;-66
2022/01/19 15:15:55;;;;;;;38.55;24.40;;;;;;;3.13;69.33;100601.20;2240205;79;27698;-63
2022/01/19 15:18:56;;;;;;;36.88;23.07;;;;;;;3.02;69.45;100589.44;2245118;79;28621;-65
2022/01/19 15:21:58;;;;;;;36.68;21.93;;;;;;;2.93;69.54;100580.31;2245035;79;30839;-63
2022/01/19 15:25:01;;;;;;;35.08;20.80;;;;;;;2.83;69.64;100569.84;2245036;79;32878;-65
2022/01/19 15:28:04;;;;;;;37.48;22.13;;;;;;;2.71;69.75;100556.34;2245084;79;29358;-63
2022/01/19 15:31:08;;;;;;;34.80;21.90;;;;;;;2.61;69.88;100553.38;2245888;79;27597;-67
2022/01/19 15:34:10;;;;;;;36.40;20.37;;;;;;;2.51;69.97;100551.29;2245115;79;28674;-65